METAR LSZS 311850Z AUTO 05012KT 9999 SCT045 M01/M12 Q1021=